sensor_id;sensor_type;location;lat;lon;timestamp;pressure;altitude;pressure_sealevel;temperature;humidity
59009;BME280;44794;42.652;23.318;2023-03-31T00:00:24;94502.63;;;7.18;70.85
59009;BME280;44794;42.652;23.318;2023-03-31T00:02:50;94503.03;;;7.12;70.77
59009;BME280;44794;42.652;23.318;2023-03-31T00:05:18;94502.09;;;7.13;70.61
59009;BME280;44794;42.652;23.318;2023-03-31T00:07:45;94504.69;;;7.13;70.84
59009;BME280;44794;42.652;23.318;2023-03-31T00:10:13;94503.94;;;7.11;70.73
59009;BME280;44794;42.652;23.318;2023-03-31T00:12:39;94497.06;;;7.12;70.29
59009;BME280;44794;42.652;23.318;2023-03-31T00:15:05;94487.00;;;7.07;70.64
59009;BME280;44794;42.652;23.318;2023-03-31T00:17:31;94489.75;;;7.04;71.10
59009;BME280;44794;42.652;23.318;2023-03-31T00:19:57;94495.94;;;7.02;71.37
59009;BME280;44794;42.652;23.318;2023-03-31T00:22:25;94493.81;;;7.08;70.80
59009;BME280;44794;42.652;23.318;2023-03-31T00:24:52;94489.03;;;7.16;69.76
59009;BME280;44794;42.652;23.318;2023-03-31T00:27:17;94492.13;;;7.21;69.52
59009;BME280;44794;42.652;23.318;2023-03-31T00:29:43;94489.91;;;7.29;69.38
59009;BME280;44794;42.652;23.318;2023-03-31T00:32:10;94488.69;;;7.35;67.49
59009;BME280;44794;42.652;23.318;2023-03-31T00:34:36;94488.09;;;7.43;69.72
59009;BME280;44794;42.652;23.318;2023-03-31T00:37:02;94490.31;;;7.36;69.56
59009;BME280;44794;42.652;23.318;2023-03-31T00:39:28;94481.09;;;7.45;68.82
59009;BME280;44794;42.652;23.318;2023-03-31T00:42:02;94480.13;;;7.60;67.70
59009;BME280;44794;42.652;23.318;2023-03-31T00:44:29;94484.06;;;7.66;68.83
59009;BME280;44794;42.652;23.318;2023-03-31T00:47:24;94473.97;;;7.75;68.80
59009;BME280;44794;42.652;23.318;2023-03-31T00:49:55;94484.75;;;7.55;71.42
59009;BME280;44794;42.652;23.318;2023-03-31T00:52:25;94467.38;;;7.57;71.65
59009;BME280;44794;42.652;23.318;2023-03-31T00:54:58;94467.66;;;7.53;71.23
59009;BME280;44794;42.652;23.318;2023-03-31T00:57:26;94469.31;;;7.54;70.92
59009;BME280;44794;42.652;23.318;2023-03-31T00:59:58;94467.94;;;7.62;70.05
59009;BME280;44794;42.652;23.318;2023-03-31T01:02:26;94460.59;;;7.69;68.73
59009;BME280;44794;42.652;23.318;2023-03-31T01:04:57;94456.56;;;7.77;69.13
59009;BME280;44794;42.652;23.318;2023-03-31T01:07:43;94454.63;;;7.81;68.90
59009;BME280;44794;42.652;23.318;2023-03-31T01:10:10;94451.44;;;7.90;66.64
59009;BME280;44794;42.652;23.318;2023-03-31T01:12:39;94460.75;;;7.92;68.20
59009;BME280;44794;42.652;23.318;2023-03-31T01:15:06;94445.38;;;8.16;64.73
59009;BME280;44794;42.652;23.318;2023-03-31T01:17:32;94441.16;;;8.52;60.12
59009;BME280;44794;42.652;23.318;2023-03-31T01:36:43;94472.09;;;8.66;61.98
59009;BME280;44794;42.652;23.318;2023-03-31T01:47:19;94480.19;;;8.61;64.84
59009;BME280;44794;42.652;23.318;2023-03-31T01:50:05;94491.28;;;8.63;65.03
59009;BME280;44794;42.652;23.318;2023-03-31T01:52:41;94507.00;;;8.60;64.14
59009;BME280;44794;42.652;23.318;2023-03-31T01:55:19;94488.75;;;8.74;62.98
59009;BME280;44794;42.652;23.318;2023-03-31T01:57:52;94493.13;;;8.74;63.44
59009;BME280;44794;42.652;23.318;2023-03-31T02:00:29;94494.06;;;8.73;63.97
59009;BME280;44794;42.652;23.318;2023-03-31T02:03:14;94482.44;;;8.78;63.85
59009;BME280;44794;42.652;23.318;2023-03-31T02:05:46;94486.88;;;8.89;62.72
59009;BME280;44794;42.652;23.318;2023-03-31T02:08:36;94499.53;;;8.81;62.76
59009;BME280;44794;42.652;23.318;2023-03-31T02:11:03;94497.84;;;8.92;62.72
59009;BME280;44794;42.652;23.318;2023-03-31T02:13:29;94495.06;;;8.95;62.43
59009;BME280;44794;42.652;23.318;2023-03-31T02:16:01;94500.66;;;9.01;62.18
59009;BME280;44794;42.652;23.318;2023-03-31T02:18:30;94507.16;;;9.07;62.65
59009;BME280;44794;42.652;23.318;2023-03-31T02:20:59;94507.38;;;9.04;64.03
59009;BME280;44794;42.652;23.318;2023-03-31T02:23:27;94520.03;;;8.96;64.53
59009;BME280;44794;42.652;23.318;2023-03-31T02:26:04;94526.34;;;8.92;65.40
59009;BME280;44794;42.652;23.318;2023-03-31T02:28:31;94517.34;;;8.73;67.41
59009;BME280;44794;42.652;23.318;2023-03-31T02:31:11;94515.28;;;8.65;66.66
59009;BME280;44794;42.652;23.318;2023-03-31T02:33:37;94532.06;;;8.60;69.43
59009;BME280;44794;42.652;23.318;2023-03-31T02:36:04;94530.50;;;8.45;70.18
59009;BME280;44794;42.652;23.318;2023-03-31T02:38:41;94521.28;;;8.28;75.61
59009;BME280;44794;42.652;23.318;2023-03-31T02:41:08;94514.50;;;8.26;76.48
59009;BME280;44794;42.652;23.318;2023-03-31T02:43:34;94522.81;;;8.31;78.04
59009;BME280;44794;42.652;23.318;2023-03-31T02:46:00;94513.50;;;8.28;81.07
59009;BME280;44794;42.652;23.318;2023-03-31T02:48:28;94508.00;;;8.21;83.64
59009;BME280;44794;42.652;23.318;2023-03-31T03:13:35;94465.78;;;8.82;79.63
59009;BME280;44794;42.652;23.318;2023-03-31T03:18:38;94466.25;;;8.99;77.45
59009;BME280;44794;42.652;23.318;2023-03-31T03:21:03;94456.88;;;9.09;77.03
59009;BME280;44794;42.652;23.318;2023-03-31T03:23:29;94457.50;;;9.13;76.27
59009;BME280;44794;42.652;23.318;2023-03-31T03:25:55;94452.13;;;9.16;76.43
59009;BME280;44794;42.652;23.318;2023-03-31T03:28:21;94460.91;;;9.26;77.08
59009;BME280;44794;42.652;23.318;2023-03-31T03:30:47;94463.81;;;9.21;78.04
59009;BME280;44794;42.652;23.318;2023-03-31T03:33:12;94450.75;;;9.23;79.89
59009;BME280;44794;42.652;23.318;2023-03-31T03:35:41;94450.47;;;9.15;81.06
59009;BME280;44794;42.652;23.318;2023-03-31T03:38:07;94446.00;;;9.17;81.81
59009;BME280;44794;42.652;23.318;2023-03-31T03:40:32;94446.44;;;9.11;79.81
59009;BME280;44794;42.652;23.318;2023-03-31T03:42:58;94447.97;;;9.13;78.74
59009;BME280;44794;42.652;23.318;2023-03-31T03:45:23;94442.16;;;9.22;80.01
59009;BME280;44794;42.652;23.318;2023-03-31T03:47:48;94429.81;;;9.26;80.65
59009;BME280;44794;42.652;23.318;2023-03-31T03:50:14;94434.38;;;9.22;81.33
59009;BME280;44794;42.652;23.318;2023-03-31T03:52:39;94426.25;;;9.27;79.95
59009;BME280;44794;42.652;23.318;2023-03-31T03:55:05;94421.09;;;9.27;79.69
59009;BME280;44794;42.652;23.318;2023-03-31T03:57:31;94427.16;;;9.15;82.87
59009;BME280;44794;42.652;23.318;2023-03-31T03:59:56;94430.47;;;9.17;85.52
59009;BME280;44794;42.652;23.318;2023-03-31T04:02:21;94437.19;;;8.84;86.09
59009;BME280;44794;42.652;23.318;2023-03-31T04:04:47;94440.69;;;8.95;85.75
59009;BME280;44794;42.652;23.318;2023-03-31T04:07:12;94444.94;;;8.96;86.84
59009;BME280;44794;42.652;23.318;2023-03-31T04:09:37;94438.81;;;8.97;87.96
59009;BME280;44794;42.652;23.318;2023-03-31T04:12:03;94438.19;;;8.94;88.22
59009;BME280;44794;42.652;23.318;2023-03-31T04:14:29;94441.72;;;8.93;88.43
59009;BME280;44794;42.652;23.318;2023-03-31T04:16:54;94443.59;;;8.91;87.89
59009;BME280;44794;42.652;23.318;2023-03-31T04:19:23;94445.19;;;8.81;87.12
59009;BME280;44794;42.652;23.318;2023-03-31T04:21:52;94456.66;;;8.89;86.99
59009;BME280;44794;42.652;23.318;2023-03-31T04:24:26;94456.53;;;8.91;85.20
59009;BME280;44794;42.652;23.318;2023-03-31T04:26:56;94448.44;;;8.95;85.06
59009;BME280;44794;42.652;23.318;2023-03-31T04:29:21;94455.28;;;8.96;84.13
59009;BME280;44794;42.652;23.318;2023-03-31T04:31:52;94448.25;;;8.98;84.00
59009;BME280;44794;42.652;23.318;2023-03-31T04:34:18;94444.97;;;9.07;84.48
59009;BME280;44794;42.652;23.318;2023-03-31T04:36:46;94452.25;;;9.02;84.82
59009;BME280;44794;42.652;23.318;2023-03-31T04:39:14;94443.69;;;9.01;83.97
59009;BME280;44794;42.652;23.318;2023-03-31T04:41:39;94438.75;;;9.09;85.06
59009;BME280;44794;42.652;23.318;2023-03-31T04:44:05;94432.97;;;9.06;86.72
59009;BME280;44794;42.652;23.318;2023-03-31T04:46:31;94426.84;;;9.07;86.04
59009;BME280;44794;42.652;23.318;2023-03-31T04:48:57;94426.03;;;9.06;86.65
59009;BME280;44794;42.652;23.318;2023-03-31T04:51:23;94432.75;;;9.09;87.29
59009;BME280;44794;42.652;23.318;2023-03-31T04:53:48;94434.19;;;9.13;87.50
59009;BME280;44794;42.652;23.318;2023-03-31T04:56:14;94434.78;;;9.16;85.98
59009;BME280;44794;42.652;23.318;2023-03-31T04:58:40;94427.16;;;9.15;86.32
59009;BME280;44794;42.652;23.318;2023-03-31T05:01:05;94424.84;;;9.23;87.06
59009;BME280;44794;42.652;23.318;2023-03-31T05:03:31;94420.47;;;9.23;87.45
59009;BME280;44794;42.652;23.318;2023-03-31T05:05:56;94410.50;;;9.30;85.98
59009;BME280;44794;42.652;23.318;2023-03-31T05:08:22;94415.19;;;9.25;84.58
59009;BME280;44794;42.652;23.318;2023-03-31T05:10:47;94412.63;;;9.25;86.33
59009;BME280;44794;42.652;23.318;2023-03-31T05:13:12;94410.50;;;9.30;86.35
59009;BME280;44794;42.652;23.318;2023-03-31T05:15:38;94414.44;;;9.35;85.84
59009;BME280;44794;42.652;23.318;2023-03-31T05:18:04;94412.44;;;9.39;84.51
59009;BME280;44794;42.652;23.318;2023-03-31T05:20:30;94396.19;;;9.37;82.72
59009;BME280;44794;42.652;23.318;2023-03-31T05:22:56;94403.91;;;9.26;82.62
59009;BME280;44794;42.652;23.318;2023-03-31T05:25:21;94403.50;;;9.43;82.17
59009;BME280;44794;42.652;23.318;2023-03-31T05:27:47;94411.81;;;9.59;81.37
59009;BME280;44794;42.652;23.318;2023-03-31T05:30:14;94404.34;;;9.77;79.97
59009;BME280;44794;42.652;23.318;2023-03-31T05:32:40;94409.44;;;9.56;81.16
59009;BME280;44794;42.652;23.318;2023-03-31T05:35:06;94409.00;;;9.62;82.66
59009;BME280;44794;42.652;23.318;2023-03-31T05:37:32;94406.00;;;9.78;82.51
59009;BME280;44794;42.652;23.318;2023-03-31T05:39:58;94388.84;;;9.88;81.14
59009;BME280;44794;42.652;23.318;2023-03-31T05:42:23;94406.94;;;9.77;80.51
59009;BME280;44794;42.652;23.318;2023-03-31T05:44:49;94408.75;;;9.88;80.61
59009;BME280;44794;42.652;23.318;2023-03-31T05:47:15;94409.50;;;10.01;79.74
59009;BME280;44794;42.652;23.318;2023-03-31T05:49:40;94418.41;;;10.20;77.92
59009;BME280;44794;42.652;23.318;2023-03-31T05:52:06;94409.25;;;10.49;77.35
59009;BME280;44794;42.652;23.318;2023-03-31T05:54:32;94416.81;;;10.85;77.24
59009;BME280;44794;42.652;23.318;2023-03-31T05:56:58;94425.03;;;11.22;74.60
59009;BME280;44794;42.652;23.318;2023-03-31T05:59:23;94424.66;;;11.80;73.37
59009;BME280;44794;42.652;23.318;2023-03-31T06:01:49;94412.78;;;11.98;70.82
59009;BME280;44794;42.652;23.318;2023-03-31T06:04:14;94416.00;;;12.11;69.93
59009;BME280;44794;42.652;23.318;2023-03-31T06:06:40;94425.06;;;12.16;69.18
59009;BME280;44794;42.652;23.318;2023-03-31T06:09:07;94420.06;;;12.24;67.85
59009;BME280;44794;42.652;23.318;2023-03-31T06:11:32;94419.00;;;12.06;68.58
59009;BME280;44794;42.652;23.318;2023-03-31T06:13:58;94430.00;;;11.99;69.47
59009;BME280;44794;42.652;23.318;2023-03-31T06:16:23;94431.06;;;12.07;68.34
59009;BME280;44794;42.652;23.318;2023-03-31T06:18:49;94426.66;;;11.88;68.10
59009;BME280;44794;42.652;23.318;2023-03-31T06:21:17;94422.31;;;11.77;69.09
59009;BME280;44794;42.652;23.318;2023-03-31T06:23:44;94411.41;;;11.83;69.26
59009;BME280;44794;42.652;23.318;2023-03-31T06:26:11;94414.22;;;11.91;69.22
59009;BME280;44794;42.652;23.318;2023-03-31T06:28:37;94419.78;;;11.87;69.08
59009;BME280;44794;42.652;23.318;2023-03-31T06:31:05;94423.06;;;11.89;68.83
59009;BME280;44794;42.652;23.318;2023-03-31T06:33:32;94415.97;;;11.70;70.40
59009;BME280;44794;42.652;23.318;2023-03-31T06:35:58;94412.47;;;11.49;70.25
59009;BME280;44794;42.652;23.318;2023-03-31T06:38:26;94417.84;;;11.68;70.44
59009;BME280;44794;42.652;23.318;2023-03-31T06:40:51;94409.91;;;11.81;70.44
59009;BME280;44794;42.652;23.318;2023-03-31T06:43:17;94420.44;;;11.99;69.91
59009;BME280;44794;42.652;23.318;2023-03-31T06:45:42;94418.81;;;12.19;68.22
59009;BME280;44794;42.652;23.318;2023-03-31T06:48:08;94422.38;;;12.18;68.65
59009;BME280;44794;42.652;23.318;2023-03-31T06:50:36;94428.50;;;12.37;68.07
59009;BME280;44794;42.652;23.318;2023-03-31T06:53:02;94430.44;;;12.35;68.59
59009;BME280;44794;42.652;23.318;2023-03-31T06:55:28;94430.38;;;12.26;67.20
59009;BME280;44794;42.652;23.318;2023-03-31T06:57:53;94423.44;;;12.36;68.17
59009;BME280;44794;42.652;23.318;2023-03-31T07:00:19;94432.31;;;12.83;67.32
59009;BME280;44794;42.652;23.318;2023-03-31T07:02:44;94423.09;;;13.48;64.90
59009;BME280;44794;42.652;23.318;2023-03-31T07:05:10;94427.97;;;13.91;61.42
59009;BME280;44794;42.652;23.318;2023-03-31T07:07:35;94420.47;;;14.16;60.09
59009;BME280;44794;42.652;23.318;2023-03-31T07:10:01;94405.19;;;13.93;58.86
59009;BME280;44794;42.652;23.318;2023-03-31T07:12:26;94401.72;;;13.64;60.67
59009;BME280;44794;42.652;23.318;2023-03-31T07:14:52;94377.81;;;13.49;63.10
59009;BME280;44794;42.652;23.318;2023-03-31T07:17:17;94384.28;;;13.55;62.53
59009;BME280;44794;42.652;23.318;2023-03-31T07:19:43;94371.09;;;13.66;63.76
59009;BME280;44794;42.652;23.318;2023-03-31T07:22:12;94373.84;;;13.93;60.90
59009;BME280;44794;42.652;23.318;2023-03-31T07:24:38;94369.16;;;14.25;58.47
59009;BME280;44794;42.652;23.318;2023-03-31T07:27:04;94362.84;;;14.27;56.35
59009;BME280;44794;42.652;23.318;2023-03-31T07:29:30;94360.22;;;14.27;53.99
59009;BME280;44794;42.652;23.318;2023-03-31T07:31:55;94366.25;;;14.46;52.84
59009;BME280;44794;42.652;23.318;2023-03-31T07:34:20;94373.91;;;14.57;51.32
59009;BME280;44794;42.652;23.318;2023-03-31T07:36:46;94373.75;;;14.68;48.79
59009;BME280;44794;42.652;23.318;2023-03-31T07:39:11;94380.31;;;14.72;49.82
59009;BME280;44794;42.652;23.318;2023-03-31T07:41:37;94371.38;;;15.11;50.14
59009;BME280;44794;42.652;23.318;2023-03-31T07:44:03;94365.78;;;15.33;48.50
59009;BME280;44794;42.652;23.318;2023-03-31T07:46:28;94364.78;;;15.34;48.84
59009;BME280;44794;42.652;23.318;2023-03-31T07:48:55;94361.81;;;14.93;47.59
59009;BME280;44794;42.652;23.318;2023-03-31T07:51:23;94363.97;;;14.61;48.81
59009;BME280;44794;42.652;23.318;2023-03-31T07:53:49;94359.97;;;14.66;49.16
59009;BME280;44794;42.652;23.318;2023-03-31T07:56:20;94359.88;;;14.58;48.88
59009;BME280;44794;42.652;23.318;2023-03-31T07:58:46;94360.16;;;14.55;48.92
59009;BME280;44794;42.652;23.318;2023-03-31T08:01:18;94355.34;;;14.60;48.38
59009;BME280;44794;42.652;23.318;2023-03-31T08:03:46;94341.75;;;14.47;47.70
59009;BME280;44794;42.652;23.318;2023-03-31T08:06:16;94351.34;;;14.66;48.12
59009;BME280;44794;42.652;23.318;2023-03-31T08:08:42;94341.41;;;14.69;47.82
59009;BME280;44794;42.652;23.318;2023-03-31T08:11:08;94344.22;;;14.85;46.05
59009;BME280;44794;42.652;23.318;2023-03-31T08:13:34;94331.81;;;15.14;45.21
59009;BME280;44794;42.652;23.318;2023-03-31T08:16:00;94337.06;;;15.14;45.35
59009;BME280;44794;42.652;23.318;2023-03-31T08:18:25;94339.28;;;14.82;45.90
59009;BME280;44794;42.652;23.318;2023-03-31T08:20:50;94339.63;;;14.70;46.15
59009;BME280;44794;42.652;23.318;2023-03-31T08:23:16;94337.88;;;14.51;46.11
59009;BME280;44794;42.652;23.318;2023-03-31T08:25:41;94325.81;;;14.77;44.56
59009;BME280;44794;42.652;23.318;2023-03-31T08:28:07;94333.97;;;14.74;45.35
59009;BME280;44794;42.652;23.318;2023-03-31T08:30:37;94331.25;;;14.93;45.98
59009;BME280;44794;42.652;23.318;2023-03-31T08:33:03;94320.09;;;14.91;45.25
59009;BME280;44794;42.652;23.318;2023-03-31T08:35:28;94333.44;;;14.98;44.77
59009;BME280;44794;42.652;23.318;2023-03-31T08:37:53;94309.75;;;14.99;44.76
59009;BME280;44794;42.652;23.318;2023-03-31T08:40:22;94323.50;;;15.01;45.19
59009;BME280;44794;42.652;23.318;2023-03-31T08:42:49;94332.78;;;15.13;43.99
59009;BME280;44794;42.652;23.318;2023-03-31T08:45:31;94338.56;;;15.26;44.53
59009;BME280;44794;42.652;23.318;2023-03-31T08:48:08;94343.94;;;14.88;44.33
59009;BME280;44794;42.652;23.318;2023-03-31T08:50:44;94338.28;;;14.56;45.16
59009;BME280;44794;42.652;23.318;2023-03-31T08:53:28;94335.25;;;14.97;45.12
59009;BME280;44794;42.652;23.318;2023-03-31T08:55:56;94334.28;;;15.25;44.90
59009;BME280;44794;42.652;23.318;2023-03-31T08:58:31;94319.97;;;15.19;43.29
59009;BME280;44794;42.652;23.318;2023-03-31T09:01:22;94319.13;;;15.46;44.19
59009;BME280;44794;42.652;23.318;2023-03-31T09:04:20;94320.41;;;15.59;43.13
59009;BME280;44794;42.652;23.318;2023-03-31T09:07:14;94310.16;;;15.66;43.07
59009;BME280;44794;42.652;23.318;2023-03-31T09:12:24;94307.03;;;15.18;43.67
59009;BME280;44794;42.652;23.318;2023-03-31T09:15:01;94304.22;;;15.02;44.39
59009;BME280;44794;42.652;23.318;2023-03-31T09:17:32;94302.66;;;15.36;44.40
59009;BME280;44794;42.652;23.318;2023-03-31T09:20:14;94303.00;;;15.68;42.96
59009;BME280;44794;42.652;23.318;2023-03-31T09:22:48;94299.28;;;16.13;43.37
59009;BME280;44794;42.652;23.318;2023-03-31T09:25:19;94292.03;;;16.57;42.36
59009;BME280;44794;42.652;23.318;2023-03-31T09:27:45;94297.66;;;16.70;40.53
59009;BME280;44794;42.652;23.318;2023-03-31T09:30:26;94300.81;;;16.74;42.88
59009;BME280;44794;42.652;23.318;2023-03-31T09:33:13;94303.44;;;16.49;40.53
59009;BME280;44794;42.652;23.318;2023-03-31T09:35:40;94306.13;;;16.56;41.25
59009;BME280;44794;42.652;23.318;2023-03-31T09:38:05;94303.41;;;17.07;42.09
59009;BME280;44794;42.652;23.318;2023-03-31T09:40:32;94311.94;;;17.50;40.95
59009;BME280;44794;42.652;23.318;2023-03-31T09:43:01;94316.53;;;17.56;39.95
59009;BME280;44794;42.652;23.318;2023-03-31T09:45:29;94312.81;;;17.18;39.35
59009;BME280;44794;42.652;23.318;2023-03-31T09:48:01;94305.06;;;17.08;40.51
59009;BME280;44794;42.652;23.318;2023-03-31T09:50:28;94292.03;;;16.91;40.86
59009;BME280;44794;42.652;23.318;2023-03-31T09:52:57;94294.22;;;17.03;40.86
59009;BME280;44794;42.652;23.318;2023-03-31T09:57:51;94298.19;;;17.15;40.33
59009;BME280;44794;42.652;23.318;2023-03-31T10:00:20;94290.50;;;17.14;40.12
59009;BME280;44794;42.652;23.318;2023-03-31T10:02:53;94284.75;;;17.26;40.88
59009;BME280;44794;42.652;23.318;2023-03-31T10:05:31;94287.16;;;17.45;40.32
59009;BME280;44794;42.652;23.318;2023-03-31T10:13:18;94268.31;;;18.29;39.71
59009;BME280;44794;42.652;23.318;2023-03-31T10:15:43;94263.47;;;18.64;38.89
59009;BME280;44794;42.652;23.318;2023-03-31T10:18:13;94272.09;;;18.88;38.07
59009;BME280;44794;42.652;23.318;2023-03-31T10:20:59;94256.84;;;18.84;37.13
59009;BME280;44794;42.652;23.318;2023-03-31T10:23:29;94260.06;;;18.40;37.18
59009;BME280;44794;42.652;23.318;2023-03-31T10:25:57;94262.19;;;18.52;37.93
59009;BME280;44794;42.652;23.318;2023-03-31T10:28:23;94245.22;;;18.63;37.86
59009;BME280;44794;42.652;23.318;2023-03-31T10:30:55;94252.50;;;18.53;37.79
59009;BME280;44794;42.652;23.318;2023-03-31T10:33:32;94241.69;;;18.16;38.33
59009;BME280;44794;42.652;23.318;2023-03-31T10:36:07;94246.81;;;17.86;38.72
59009;BME280;44794;42.652;23.318;2023-03-31T10:38:43;94240.84;;;18.15;38.35
59009;BME280;44794;42.652;23.318;2023-03-31T10:41:10;94237.25;;;18.32;37.85
59009;BME280;44794;42.652;23.318;2023-03-31T10:43:41;94233.91;;;18.54;38.22
59009;BME280;44794;42.652;23.318;2023-03-31T10:46:07;94238.44;;;18.22;37.69
59009;BME280;44794;42.652;23.318;2023-03-31T10:48:36;94229.88;;;18.28;38.58
59009;BME280;44794;42.652;23.318;2023-03-31T10:51:27;94227.41;;;18.26;37.98
59009;BME280;44794;42.652;23.318;2023-03-31T10:53:54;94227.41;;;18.10;37.58
59009;BME280;44794;42.652;23.318;2023-03-31T11:26:18;94194.75;;;17.97;38.03
59009;BME280;44794;42.652;23.318;2023-03-31T11:28:59;94180.16;;;17.87;38.64
59009;BME280;44794;42.652;23.318;2023-03-31T11:36:48;94172.31;;;18.41;37.57
59009;BME280;44794;42.652;23.318;2023-03-31T11:42:09;94169.44;;;18.58;38.00
59009;BME280;44794;42.652;23.318;2023-03-31T11:44:48;94163.91;;;18.53;37.68
59009;BME280;44794;42.652;23.318;2023-03-31T11:47:26;94165.78;;;18.37;37.83
59009;BME280;44794;42.652;23.318;2023-03-31T11:49:58;94162.09;;;17.84;38.73
59009;BME280;44794;42.652;23.318;2023-03-31T11:52:29;94159.44;;;17.12;40.15
59009;BME280;44794;42.652;23.318;2023-03-31T12:00:23;94140.28;;;17.75;39.33
59009;BME280;44794;42.652;23.318;2023-03-31T12:06:02;94136.28;;;16.92;40.87
59009;BME280;44794;42.652;23.318;2023-03-31T12:09:09;94125.13;;;16.90;41.58
59009;BME280;44794;42.652;23.318;2023-03-31T12:11:46;94123.50;;;16.97;41.20
59009;BME280;44794;42.652;23.318;2023-03-31T12:14:36;94123.19;;;17.00;41.14
59009;BME280;44794;42.652;23.318;2023-03-31T12:17:19;94121.69;;;16.97;41.16
59009;BME280;44794;42.652;23.318;2023-03-31T12:24:45;94114.63;;;16.82;41.27
59009;BME280;44794;42.652;23.318;2023-03-31T12:30:13;94111.53;;;16.86;41.62
59009;BME280;44794;42.652;23.318;2023-03-31T12:32:45;94098.25;;;16.88;41.69
59009;BME280;44794;42.652;23.318;2023-03-31T12:35:25;94105.59;;;16.60;41.62
59009;BME280;44794;42.652;23.318;2023-03-31T12:41:30;94097.31;;;16.32;42.42
59009;BME280;44794;42.652;23.318;2023-03-31T12:44:23;94092.13;;;16.48;41.65
59009;BME280;44794;42.652;23.318;2023-03-31T12:52:31;94065.13;;;16.87;41.40
59009;BME280;44794;42.652;23.318;2023-03-31T12:55:25;94062.84;;;17.00;41.18
59009;BME280;44794;42.652;23.318;2023-03-31T12:58:36;94062.53;;;17.27;40.95
59009;BME280;44794;42.652;23.318;2023-03-31T13:05:59;94052.00;;;17.42;40.74
59009;BME280;44794;42.652;23.318;2023-03-31T13:08:56;94036.03;;;17.68;40.08
59009;BME280;44794;42.652;23.318;2023-03-31T13:16:43;94016.47;;;17.78;40.36
59009;BME280;44794;42.652;23.318;2023-03-31T13:19:26;93997.31;;;18.00;39.11
59009;BME280;44794;42.652;23.318;2023-03-31T13:21:57;93991.84;;;17.79;39.74
59009;BME280;44794;42.652;23.318;2023-03-31T13:24:27;93986.75;;;17.86;39.75
59009;BME280;44794;42.652;23.318;2023-03-31T13:26:54;93983.16;;;17.79;39.49
59009;BME280;44794;42.652;23.318;2023-03-31T13:29:44;93978.69;;;17.41;40.17
59009;BME280;44794;42.652;23.318;2023-03-31T13:32:21;93965.72;;;17.47;40.10
59009;BME280;44794;42.652;23.318;2023-03-31T13:35:26;93958.28;;;17.59;40.10
59009;BME280;44794;42.652;23.318;2023-03-31T13:38:05;93952.22;;;17.50;39.92
59009;BME280;44794;42.652;23.318;2023-03-31T13:52:08;93931.94;;;17.36;40.34
59009;BME280;44794;42.652;23.318;2023-03-31T14:02:31;93922.38;;;17.51;40.42
59009;BME280;44794;42.652;23.318;2023-03-31T14:05:19;93914.53;;;17.74;40.31
59009;BME280;44794;42.652;23.318;2023-03-31T14:07:57;93919.25;;;17.86;39.26
59009;BME280;44794;42.652;23.318;2023-03-31T14:10:30;93917.44;;;17.87;39.36
59009;BME280;44794;42.652;23.318;2023-03-31T14:15:48;93908.44;;;18.34;39.09
59009;BME280;44794;42.652;23.318;2023-03-31T14:18:20;93910.84;;;18.43;38.32
59009;BME280;44794;42.652;23.318;2023-03-31T14:35:23;93890.16;;;17.88;39.66
59009;BME280;44794;42.652;23.318;2023-03-31T14:37:54;93884.16;;;17.79;40.13
59009;BME280;44794;42.652;23.318;2023-03-31T14:40:21;93891.34;;;17.85;39.57
59009;BME280;44794;42.652;23.318;2023-03-31T14:42:47;93882.81;;;17.83;39.72
59009;BME280;44794;42.652;23.318;2023-03-31T14:45:23;93880.78;;;17.93;39.57
59009;BME280;44794;42.652;23.318;2023-03-31T14:48:10;93874.13;;;18.05;39.19
59009;BME280;44794;42.652;23.318;2023-03-31T14:50:45;93868.59;;;18.00;39.34
59009;BME280;44794;42.652;23.318;2023-03-31T14:53:22;93873.78;;;18.08;39.19
59009;BME280;44794;42.652;23.318;2023-03-31T14:55:48;93867.88;;;18.06;39.48
59009;BME280;44794;42.652;23.318;2023-03-31T14:58:28;93871.03;;;18.02;39.29
59009;BME280;44794;42.652;23.318;2023-03-31T15:00:56;93859.75;;;17.93;39.69
59009;BME280;44794;42.652;23.318;2023-03-31T15:03:24;93860.50;;;17.79;40.58
59009;BME280;44794;42.652;23.318;2023-03-31T15:05:55;93859.00;;;17.85;40.31
59009;BME280;44794;42.652;23.318;2023-03-31T15:08:22;93856.91;;;17.80;40.16
59009;BME280;44794;42.652;23.318;2023-03-31T15:10:54;93863.66;;;17.75;40.38
59009;BME280;44794;42.652;23.318;2023-03-31T15:13:31;93859.06;;;17.77;40.30
59009;BME280;44794;42.652;23.318;2023-03-31T15:15:57;93856.75;;;17.74;40.45
59009;BME280;44794;42.652;23.318;2023-03-31T15:18:25;93861.38;;;17.72;40.35
59009;BME280;44794;42.652;23.318;2023-03-31T15:20:51;93859.78;;;17.63;40.28
59009;BME280;44794;42.652;23.318;2023-03-31T15:23:22;93850.63;;;17.59;40.51
59009;BME280;44794;42.652;23.318;2023-03-31T15:25:56;93856.50;;;17.61;40.42
59009;BME280;44794;42.652;23.318;2023-03-31T15:28:23;93855.00;;;17.66;40.36
59009;BME280;44794;42.652;23.318;2023-03-31T15:30:51;93849.31;;;17.55;40.22
59009;BME280;44794;42.652;23.318;2023-03-31T15:33:21;93846.13;;;17.45;40.55
59009;BME280;44794;42.652;23.318;2023-03-31T15:35:48;93849.88;;;17.42;41.04
59009;BME280;44794;42.652;23.318;2023-03-31T15:38:14;93844.72;;;17.19;41.18
59009;BME280;44794;42.652;23.318;2023-03-31T15:40:42;93846.91;;;16.99;41.83
59009;BME280;44794;42.652;23.318;2023-03-31T15:46:09;93856.63;;;16.91;42.11
59009;BME280;44794;42.652;23.318;2023-03-31T15:48:37;93846.25;;;16.97;42.25
59009;BME280;44794;42.652;23.318;2023-03-31T15:53:44;93846.50;;;16.72;43.04
59009;BME280;44794;42.652;23.318;2023-03-31T15:56:41;93850.13;;;16.71;42.86
59009;BME280;44794;42.652;23.318;2023-03-31T15:59:24;93847.16;;;16.66;42.78
59009;BME280;44794;42.652;23.318;2023-03-31T16:01:50;93846.16;;;16.67;42.67
59009;BME280;44794;42.652;23.318;2023-03-31T16:04:16;93843.56;;;16.67;42.91